logo dgac
Martes 06 de Diciembre del 2022
Buscar por aerodromo o helipuerto
Ingrese nombre de aeródromo, localidad o designador OACI:

Aeródromo: Viña del Mar (PUB) (SCVM)

Ubicación: Viña del Mar, V Región, Chile (32º 56' 59'' S, 71º 28' 43'' W) Ver ubicación en el mapa

Pistas

Luces
Orientación Dimensión Pendiente Superficie Resistencia APCH THR RWY PAPI
05/23 1750 x 30 0,60 ASPH PCN 30 F/B/X/T Sí (3.2º)
Horas de operación H24
Elevación 140 m / 461 ft
Otra Información Adm : Armada de Chile
Uso : PUB
TEL : Jefatura: +56 961752059 / TEL ARO: 224392746 - CEL +56 961750277
Ubicado a 15 km NE de Viña del Mar
email : aro.vina@dgac.gob.cl

Otra información ver AIP-Chile Volumen I AD 3.9-20.6-V
CCCM/FCCV Descargar
andera de Chile
Mapa de Viña del Mar (PUB) (SCVM)

Último METAR

METAR SCVM 060600Z 15005KT CAVOK 11/09 Q1014

Último TAF

TAF SCVM 060400Z 0606/0706 16004KT CAVOK TX24/0619Z TN11/0610Z TEMPO 0608/0612 VRB02KT 5000 BR BKN008 BECMG 0614/0616 31010KT BECMG 0618/0620 28012KT BECMG 0701/0703 20006KT

Últimas fotos cámaras

Imagen aerodromo Viña del Mar (PUB) (SCVM) S-Oeste tomada el 06-12-2022 06:32:32 Imagen aerodromo Viña del Mar (PUB) (SCVM) N-Este tomada el 06-12-2022 06:32:58

Último NOTAM

B1820/22 NOTAMN Q)SCEZ/QICAS/I/NBO/A/000/999/3257S07129W005 A)SCVM B)2212061200 C)2212061900 E)ILS RWY 05 NOT AVBL